Time;durP1;ratioP1;P1;durP2;ratioP2;P2;SDS_P1;SDS_P2;PMS_P1;PMS_P2;Temp;Humidity;BMP_temperature;BMP_pressure;BME280_temperature;BME280_humidity;BME280_pressure;Samples;Min_cycle;Max_cycle;Signal;HPM_P1;HPM_P2
2022/01/27 00:03:25;;;;;;;54.47;24.10;;;;;;;2.72;100.00;102114.75;5006394;28;20068;-84
2022/01/27 00:05:59;;;;;;;76.20;38.65;;;;;;;2.77;100.00;102105.72;4996616;28;20065;-85
2022/01/27 00:08:42;;;;;;;73.07;39.22;;;;;;;2.78;100.00;102102.97;4993055;28;20070;-83
2022/01/27 00:11:14;;;;;;;69.45;36.33;;;;;;;2.77;100.00;102106.56;4956174;28;20057;-84
2022/01/27 00:13:49;;;;;;;73.90;38.05;;;;;;;2.78;100.00;102096.81;4982275;28;20137;-84
2022/01/27 00:16:24;;;;;;;71.75;39.08;;;;;;;2.82;100.00;102091.28;4982680;28;20051;-84
2022/01/27 00:18:54;;;;;;;72.13;35.28;;;;;;;2.79;100.00;102098.50;4982296;28;20081;-83
2022/01/27 00:21:30;;;;;;;72.30;37.70;;;;;;;2.80;100.00;102079.03;4975327;28;20047;-84
2022/01/27 00:23:56;;;;;;;77.40;39.42;;;;;;;2.82;100.00;102077.13;4963129;28;20068;-86
2022/01/27 00:26:23;;;;;;;75.70;42.65;;;;;;;2.80;100.00;102074.59;4967612;28;20398;-85
2022/01/27 00:28:54;;;;;;;75.68;40.85;;;;;;;2.83;100.00;102089.47;4979949;28;20380;-84
2022/01/27 00:31:21;;;;;;;71.82;39.95;;;;;;;2.83;100.00;102087.66;4969919;28;20046;-85
2022/01/27 00:33:49;;;;;;;73.32;37.42;;;;;;;2.83;100.00;102077.06;4975114;28;20038;-85
2022/01/27 00:36:16;;;;;;;71.88;35.47;;;;;;;2.80;100.00;102069.28;4980072;28;20043;-84
2022/01/27 00:38:42;;;;;;;77.97;39.47;;;;;;;2.82;100.00;102062.13;4943493;28;20047;-84
2022/01/27 00:41:08;;;;;;;72.20;38.38;;;;;;;2.82;100.00;102037.38;4995402;28;20042;-84
2022/01/27 00:43:36;;;;;;;68.25;36.90;;;;;;;2.83;100.00;102047.06;4982612;28;20039;-84
2022/01/27 00:46:12;;;;;;;64.60;30.27;;;;;;;2.79;100.00;102046.38;4968715;28;20046;-84
2022/01/27 00:48:40;;;;;;;66.90;35.35;;;;;;;2.85;100.00;102047.81;4979006;28;20111;-85
2022/01/27 00:51:08;;;;;;;67.30;36.95;;;;;;;2.85;100.00;102043.38;5002473;28;20083;-84
2022/01/27 00:56:47;;;;;;;71.43;38.55;;;;;;;2.85;100.00;102039.84;4986199;28;20050;-83
2022/01/27 01:02:05;;;;;;;64.53;35.40;;;;;;;2.85;100.00;102035.44;4995797;28;20486;-85
2022/01/27 01:04:36;;;;;;;60.22;31.40;;;;;;;2.83;100.00;102055.84;5001689;28;20052;-83
2022/01/27 01:07:04;;;;;;;62.97;31.83;;;;;;;2.84;100.00;102059.34;4973998;28;20042;-83
2022/01/27 01:15:25;;;;;;;68.03;36.80;;;;;;;2.88;100.00;102051.16;4992726;28;20048;-84
2022/01/27 01:31:46;;;;;;;53.75;29.05;;;;;;;2.89;100.00;102034.31;5013417;28;20048;-84
2022/01/27 01:34:24;;;;;;;54.85;28.55;;;;;;;2.91;100.00;102026.28;5027400;28;20038;-84
2022/01/27 01:36:56;;;;;;;57.33;31.02;;;;;;;2.91;100.00;101999.78;4988704;28;20082;-84
2022/01/27 01:39:26;;;;;;;53.88;26.58;;;;;;;2.91;100.00;102008.56;4985829;28;20061;-84
2022/01/27 01:41:54;;;;;;;50.13;26.13;;;;;;;2.91;100.00;102005.91;4999561;28;20037;-84
2022/01/27 01:44:22;;;;;;;54.95;30.00;;;;;;;2.93;100.00;102001.41;5012764;28;20402;-85
2022/01/27 01:46:56;;;;;;;55.03;32.50;;;;;;;2.99;100.00;102017.88;5009505;28;20046;-84
2022/01/27 01:49:26;;;;;;;52.58;29.65;;;;;;;2.98;100.00;102022.34;5004132;28;20042;-84
2022/01/27 01:51:54;;;;;;;51.22;30.30;;;;;;;3.01;100.00;102008.06;5014334;28;20041;-83
2022/01/27 01:54:20;;;;;;;48.50;25.17;;;;;;;3.00;100.00;101993.94;5008546;28;20049;-84
2022/01/27 01:56:46;;;;;;;49.72;30.38;;;;;;;3.03;100.00;102009.69;4992959;28;20500;-84
2022/01/27 01:59:13;;;;;;;55.50;32.13;;;;;;;3.02;100.00;101970.84;5000079;28;20049;-84
2022/01/27 02:01:41;;;;;;;47.63;25.80;;;;;;;3.03;100.00;101979.66;5002946;28;20112;-85
2022/01/27 02:04:10;;;;;;;54.85;32.38;;;;;;;3.03;100.00;101977.84;5017838;28;20062;-83
2022/01/27 02:06:45;;;;;;;;;;;;;;;3.06;100.00;101979.50;5002861;28;20046;-84
2022/01/27 02:20:22;;;;;;;55.10;28.95;;;;;;;3.02;100.00;101988.53;5006739;28;20518;-84
2022/01/27 02:22:48;;;;;;;52.53;31.88;;;;;;;3.04;100.00;101976.91;4992096;28;20050;-83
2022/01/27 02:25:13;;;;;;;49.08;23.15;;;;;;;3.02;100.00;101984.13;5003831;28;20046;-84
2022/01/27 02:27:39;;;;;;;42.28;21.25;;;;;;;3.05;100.00;102006.94;5009431;28;20046;-84
2022/01/27 02:30:07;;;;;;;48.58;25.25;;;;;;;3.03;100.00;101959.28;5010563;28;20058;-84
2022/01/27 02:32:32;;;;;;;57.00;31.20;;;;;;;3.04;100.00;101965.44;5005948;28;20494;-84
2022/01/27 02:35:05;;;;;;;50.38;30.52;;;;;;;3.06;100.00;101952.97;5010932;28;20097;-84
2022/01/27 02:37:33;;;;;;;43.20;20.88;;;;;;;3.04;100.00;101926.53;5008375;28;20038;-84
2022/01/27 02:39:58;;;;;;;46.17;26.38;;;;;;;3.06;100.00;101926.44;4969346;28;20057;-84
2022/01/27 02:42:38;;;;;;;50.10;26.48;;;;;;;3.04;100.00;101939.78;4974057;28;20038;-85
2022/01/27 02:45:12;;;;;;;48.88;27.92;;;;;;;3.06;100.00;101932.59;4986510;28;20070;-84
2022/01/27 02:47:39;;;;;;;49.17;25.90;;;;;;;3.05;100.00;101927.38;4987173;28;20173;-84
2022/01/27 02:50:06;;;;;;;52.05;30.23;;;;;;;3.05;100.00;101922.06;4991642;28;20053;-85
2022/01/27 02:52:45;;;;;;;48.22;23.58;;;;;;;3.02;100.00;101939.03;4987212;28;20038;-86
2022/01/27 02:55:13;;;;;;;56.00;32.03;;;;;;;3.05;100.00;101920.28;4985611;28;20129;-85
2022/01/27 02:57:39;;;;;;;45.00;24.90;;;;;;;3.02;100.00;101908.97;4966648;28;20050;-85
2022/01/27 03:00:07;;;;;;;50.17;29.40;;;;;;;3.05;100.00;101917.63;4988197;28;20116;-84
2022/01/27 03:02:36;;;;;;;50.03;26.90;;;;;;;3.00;100.00;101901.13;4967289;28;20129;-84
2022/01/27 03:05:04;;;;;;;49.42;29.77;;;;;;;3.01;100.00;101900.19;4978253;28;20121;-84
2022/01/27 03:07:30;;;;;;;50.10;27.38;;;;;;;3.01;100.00;101921.38;4983761;28;20039;-84
2022/01/27 03:10:03;;;;;;;48.00;26.88;;;;;;;3.00;100.00;101910.88;4976112;28;20046;-84
2022/01/27 03:12:37;;;;;;;54.25;31.65;;;;;;;3.02;100.00;101901.03;4987265;28;20043;-85
2022/01/27 03:15:05;;;;;;;50.25;28.92;;;;;;;3.01;100.00;101912.59;4981774;28;20042;-85
2022/01/27 03:17:30;;;;;;;48.22;25.52;;;;;;;3.00;100.00;101914.38;4981641;28;20049;-85
2022/01/27 03:19:57;;;;;;;52.78;28.45;;;;;;;3.01;100.00;101913.44;4958146;28;20038;-83
2022/01/27 03:22:23;;;;;;;45.65;24.95;;;;;;;3.01;100.00;101902.81;4955962;28;20050;-84
2022/01/27 03:24:49;;;;;;;50.05;25.40;;;;;;;3.00;100.00;101900.28;4982955;28;20499;-84
2022/01/27 03:27:21;;;;;;;53.78;26.70;;;;;;;3.00;100.00;101887.88;4976837;28;20069;-85
2022/01/27 03:29:47;;;;;;;49.60;28.27;;;;;;;3.00;100.00;101884.38;4956784;28;20438;-84
2022/01/27 03:32:12;;;;;;;46.92;23.83;;;;;;;3.00;100.00;101885.22;4972408;28;20126;-85
2022/01/27 03:34:38;;;;;;;47.38;22.73;;;;;;;3.02;100.00;101893.94;4981332;28;20675;-86
2022/01/27 03:37:03;;;;;;;48.47;27.88;;;;;;;3.02;100.00;101882.47;4987095;28;20129;-85
2022/01/27 03:39:29;;;;;;;53.17;28.77;;;;;;;3.03;100.00;101878.88;4999274;28;20043;-85
2022/01/27 03:41:56;;;;;;;48.67;27.50;;;;;;;3.02;100.00;101862.13;4995657;28;20392;-82
2022/01/27 03:44:22;;;;;;;50.83;29.35;;;;;;;3.04;100.00;101864.66;4980337;28;20106;-84
2022/01/27 03:46:49;;;;;;;52.65;26.15;;;;;;;3.03;100.00;101865.63;4984563;28;20042;-83
2022/01/27 03:49:14;;;;;;;49.33;29.00;;;;;;;3.03;100.00;101865.63;4991939;28;20053;-84
2022/01/27 03:51:40;;;;;;;46.17;27.17;;;;;;;3.04;100.00;101859.38;4975406;28;20054;-84
2022/01/27 03:54:06;;;;;;;36.63;18.67;;;;;;;3.02;100.00;101866.56;4974998;28;20046;-84
2022/01/27 03:56:31;;;;;;;45.70;23.73;;;;;;;3.03;100.00;101852.38;4991460;28;20105;-85
2022/01/27 03:58:56;;;;;;;52.13;29.42;;;;;;;3.04;100.00;101848.75;4992124;28;20038;-85
2022/01/27 04:01:22;;;;;;;44.60;24.83;;;;;;;3.02;100.00;101842.69;4991301;28;20058;-84
2022/01/27 04:03:47;;;;;;;46.92;29.23;;;;;;;3.06;100.00;101834.47;4971161;28;20054;-84
2022/01/27 04:06:19;;;;;;;48.17;28.30;;;;;;;3.04;100.00;101843.47;4987174;28;20065;-84
2022/01/27 04:08:45;;;;;;;48.42;22.85;;;;;;;3.07;100.00;101827.34;4972898;28;20039;-84
2022/01/27 04:11:10;;;;;;;47.65;25.73;;;;;;;3.04;100.00;101824.91;4955575;28;20064;-85
2022/01/27 04:13:36;;;;;;;47.75;25.88;;;;;;;3.06;100.00;101823.84;4958820;28;20085;-83
2022/01/27 04:16:03;;;;;;;44.78;25.27;;;;;;;3.07;100.00;101822.06;4985194;28;20047;-84
2022/01/27 04:18:29;;;;;;;39.58;20.90;;;;;;;3.05;100.00;101829.25;4990045;28;20038;-84
2022/01/27 04:20:55;;;;;;;40.70;19.88;;;;;;;3.05;100.00;101830.13;4974407;28;20042;-84
2022/01/27 04:23:21;;;;;;;42.72;25.50;;;;;;;3.09;100.00;101823.69;4991075;28;20081;-84
2022/01/27 04:25:47;;;;;;;47.95;30.08;;;;;;;3.12;100.00;101825.31;4982108;28;20142;-85
2022/01/27 04:28:16;;;;;;;45.65;25.60;;;;;;;3.08;100.00;101821.97;4983238;28;20500;-84
2022/01/27 04:30:42;;;;;;;46.47;25.30;;;;;;;3.09;100.00;101825.47;4971295;28;20047;-85
2022/01/27 04:33:08;;;;;;;48.30;25.85;;;;;;;3.12;100.00;101822.66;4971104;28;20046;-83
2022/01/27 04:35:39;;;;;;;44.50;23.08;;;;;;;3.10;100.00;101806.81;4974860;28;20129;-84
2022/01/27 04:48:23;;;;;;;47.85;22.15;;;;;;;3.15;100.00;101782.69;5010420;28;20054;-84
2022/01/27 04:50:50;;;;;;;52.63;24.77;;;;;;;3.18;100.00;101766.56;5009100;28;20050;-84
2022/01/27 04:53:23;;;;;;;42.17;25.60;;;;;;;3.20;100.00;101758.53;5010222;28;20095;-84
2022/01/27 04:55:48;;;;;;;44.38;22.88;;;;;;;3.22;100.00;101746.84;5001738;28;20044;-84
2022/01/27 04:58:19;;;;;;;41.00;18.52;;;;;;;3.20;100.00;101727.56;5008939;28;20137;-84
2022/01/27 05:00:45;;;;;;;45.42;26.38;;;;;;;3.25;100.00;101741.41;4987850;28;20065;-85
2022/01/27 05:03:23;;;;;;;44.03;23.33;;;;;;;3.26;100.00;101737.78;5002131;28;20034;-86
2022/01/27 05:05:48;;;;;;;46.63;25.08;;;;;;;3.27;100.00;101738.63;5024936;28;20049;-84
2022/01/27 05:08:18;;;;;;;40.30;20.30;;;;;;;3.28;100.00;101746.50;5018372;28;20046;-84
2022/01/27 05:10:54;;;;;;;42.05;25.35;;;;;;;3.33;100.00;101746.22;5008675;28;20087;-84
2022/01/27 05:13:22;;;;;;;46.63;28.00;;;;;;;3.33;100.00;101765.63;4984317;28;20487;-84
2022/01/27 05:15:47;;;;;;;40.40;23.10;;;;;;;3.34;100.00;101756.75;5016751;28;20074;-84
2022/01/27 05:18:15;;;;;;;43.30;25.25;;;;;;;3.34;100.00;101735.53;5004544;28;20158;-84
2022/01/27 05:20:41;;;;;;;41.20;23.42;;;;;;;3.36;100.00;101743.38;5003088;28;20054;-83
2022/01/27 05:23:07;;;;;;;39.65;20.10;;;;;;;3.34;100.00;101721.41;5001862;28;20057;-84
2022/01/27 05:25:32;;;;;;;44.85;26.40;;;;;;;3.37;100.00;101706.13;5006151;28;20042;-84
2022/01/27 05:27:58;;;;;;;44.63;24.65;;;;;;;3.39;100.00;101680.38;5005868;28;20050;-84
2022/01/27 05:30:24;;;;;;;39.60;20.60;;;;;;;3.38;100.00;101694.56;5029893;28;20042;-83
2022/01/27 05:32:49;;;;;;;42.22;21.55;;;;;;;3.42;100.00;101699.69;5010275;28;20081;-84
2022/01/27 05:35:14;;;;;;;41.75;19.58;;;;;;;3.42;100.00;101692.56;4987224;28;20041;-84
2022/01/27 05:37:40;;;;;;;32.33;18.90;;;;;;;3.44;100.00;101696.00;5014030;28;20137;-84
2022/01/27 05:40:07;;;;;;;40.88;21.42;;;;;;;3.46;100.00;101695.91;4993113;28;20058;-84
2022/01/27 05:42:32;;;;;;;41.88;23.13;;;;;;;3.48;100.00;101712.56;4993322;28;20050;-84
2022/01/27 05:44:57;;;;;;;37.92;21.13;;;;;;;3.50;100.00;101706.22;4975987;28;20056;-84
2022/01/27 05:47:23;;;;;;;39.70;23.45;;;;;;;3.52;100.00;101696.38;4992309;28;20049;-85
2022/01/27 05:49:48;;;;;;;43.53;20.98;;;;;;;3.53;100.00;101697.22;5002372;28;20502;-85
2022/01/27 05:52:14;;;;;;;42.50;22.40;;;;;;;3.54;100.00;101699.78;4986716;28;20222;-84
2022/01/27 05:54:39;;;;;;;35.72;21.33;;;;;;;3.54;100.00;101682.97;5002765;28;20068;-84
2022/01/27 05:57:07;;;;;;;44.53;25.55;;;;;;;3.58;100.00;101689.81;5003006;28;20504;-84
2022/01/27 05:59:36;;;;;;;43.03;24.23;;;;;;;3.57;100.00;101688.13;5014633;28;20165;-84
2022/01/27 06:02:07;;;;;;;43.97;25.08;;;;;;;3.58;100.00;101692.47;5000095;28;20568;-84
2022/01/27 06:04:33;;;;;;;40.90;19.48;;;;;;;3.58;100.00;101695.13;4995638;28;20487;-84
2022/01/27 06:06:59;;;;;;;46.25;24.33;;;;;;;3.59;100.00;101688.84;4999029;28;20049;-84
2022/01/27 06:09:25;;;;;;;48.65;25.52;;;;;;;3.58;100.00;101692.47;4985232;28;20627;-84
2022/01/27 06:11:52;;;;;;;45.50;28.48;;;;;;;3.55;100.00;101682.06;4985004;28;20081;-84
2022/01/27 06:14:18;;;;;;;44.78;25.20;;;;;;;3.54;100.00;101682.97;4989459;28;20046;-84
2022/01/27 06:16:50;;;;;;;51.60;26.67;;;;;;;3.53;100.00;101674.16;4998409;28;20052;-84
2022/01/27 06:19:15;;;;;;;46.95;23.63;;;;;;;3.54;100.00;101678.56;4998322;28;20043;-84
2022/01/27 06:21:51;;;;;;;42.97;20.25;;;;;;;3.53;100.00;101670.66;4994983;28;20108;-84
2022/01/27 06:24:16;;;;;;;50.47;27.15;;;;;;;3.53;100.00;101658.25;5012145;28;20047;-84
2022/01/27 06:26:42;;;;;;;48.22;22.42;;;;;;;3.51;100.00;101667.25;5009571;28;21299;-84
2022/01/27 06:29:11;;;;;;;52.92;28.17;;;;;;;3.55;100.00;101668.78;4988963;28;20042;-85
2022/01/27 06:31:47;;;;;;;53.08;26.23;;;;;;;3.57;100.00;101656.28;4989786;28;20487;-84
2022/01/27 06:34:15;;;;;;;65.60;33.45;;;;;;;3.56;100.00;101642.13;4989550;28;20442;-84
2022/01/27 06:36:41;;;;;;;55.15;29.00;;;;;;;3.52;100.00;101630.03;5009342;28;20045;-84
2022/01/27 06:39:07;;;;;;;63.25;29.95;;;;;;;3.55;100.00;101647.56;5005598;28;20049;-85
2022/01/27 06:41:38;;;;;;;54.33;26.50;;;;;;;3.56;100.00;101654.56;4993674;28;20034;-84
2022/01/27 06:44:05;;;;;;;57.53;25.80;;;;;;;3.56;100.00;101638.63;5002823;28;20034;-84
2022/01/27 06:46:35;;;;;;;59.75;30.95;;;;;;;3.59;100.00;101633.13;4989860;28;20759;-83
2022/01/27 06:49:05;;;;;;;58.00;30.23;;;;;;;3.58;100.00;101634.94;4986215;28;20085;-85
2022/01/27 06:51:32;;;;;;;65.38;29.33;;;;;;;3.58;100.00;101644.69;5004603;28;20050;-85
2022/01/27 06:53:59;;;;;;;62.35;31.20;;;;;;;3.59;100.00;101638.44;5010013;28;20193;-85
2022/01/27 06:56:37;;;;;;;66.28;34.92;;;;;;;3.58;100.00;101624.31;5002838;28;20130;-84
2022/01/27 06:59:03;;;;;;;65.85;30.15;;;;;;;3.56;100.00;101634.16;5036267;28;20054;-85
2022/01/27 07:01:30;;;;;;;65.72;33.78;;;;;;;3.59;100.00;101641.09;5000646;28;20373;-85
2022/01/27 07:04:02;;;;;;;63.15;29.98;;;;;;;3.59;100.00;101633.97;4999419;28;20053;-85
2022/01/27 07:06:33;;;;;;;54.67;25.67;;;;;;;3.63;100.00;101645.25;5034990;28;20069;-85
2022/01/27 07:09:06;;;;;;;64.50;35.03;;;;;;;3.65;100.00;101635.38;5002270;28;20129;-86
2022/01/27 07:11:34;;;;;;;66.07;30.35;;;;;;;3.68;100.00;101634.31;5007296;28;20038;-86
2022/01/27 07:14:06;;;;;;;64.65;34.30;;;;;;;3.70;100.00;101627.13;4992302;28;20049;-86
2022/01/27 07:16:34;;;;;;;64.22;30.65;;;;;;;3.71;100.00;101631.47;4990201;28;20104;-86
2022/01/27 07:19:01;;;;;;;58.38;29.92;;;;;;;3.72;100.00;101634.03;4991488;28;20056;-86
2022/01/27 07:21:26;;;;;;;54.70;27.05;;;;;;;3.78;100.00;101644.25;5003427;28;20129;-86
2022/01/27 07:23:54;;;;;;;58.83;29.92;;;;;;;3.78;100.00;101632.78;5000276;28;20136;-86
2022/01/27 07:26:25;;;;;;;63.03;29.42;;;;;;;3.79;100.00;101619.41;4992831;28;20042;-86
2022/01/27 07:28:55;;;;;;;62.83;33.55;;;;;;;3.83;100.00;101630.69;4987492;28;20053;-86
2022/01/27 07:31:21;;;;;;;66.00;28.92;;;;;;;3.83;100.00;101631.53;4998429;28;20057;-86
2022/01/27 07:33:51;;;;;;;50.83;23.17;;;;;;;3.82;100.00;101629.81;5004935;28;20046;-86
2022/01/27 07:36:16;;;;;;;60.85;29.70;;;;;;;3.83;100.00;101630.69;5000626;28;20541;-86
2022/01/27 07:38:52;;;;;;;74.95;40.75;;;;;;;3.86;100.00;101634.97;4991082;28;20046;-85
2022/01/27 07:41:19;;;;;;;61.40;30.58;;;;;;;3.88;100.00;101643.66;5014548;28;20138;-86
2022/01/27 07:43:52;;;;;;;63.92;28.33;;;;;;;3.87;100.00;101641.97;5006270;28;20491;-86
2022/01/27 07:46:18;;;;;;;56.95;24.17;;;;;;;3.88;100.00;101630.38;5004193;28;20038;-85
2022/01/27 07:48:45;;;;;;;62.05;27.38;;;;;;;3.90;100.00;101637.28;5002975;28;20049;-85
2022/01/27 07:51:12;;;;;;;59.92;29.10;;;;;;;3.89;100.00;101640.91;5003972;28;20050;-85
2022/01/27 07:53:43;;;;;;;56.92;27.67;;;;;;;3.89;100.00;101632.94;4999899;28;20461;-86
2022/01/27 07:56:08;;;;;;;69.95;34.53;;;;;;;3.92;100.00;101626.59;5004527;28;20057;-86
2022/01/27 07:58:38;;;;;;;65.07;30.42;;;;;;;3.93;100.00;101641.56;5021154;28;20045;-86
2022/01/27 08:01:10;;;;;;;71.25;35.33;;;;;;;3.93;100.00;101639.75;5004551;28;20057;-86
2022/01/27 08:03:37;;;;;;;55.58;25.73;;;;;;;3.91;100.00;101633.69;4989241;28;20053;-86
2022/01/27 08:06:09;;;;;;;57.47;26.95;;;;;;;3.94;100.00;101637.94;4986214;28;20047;-85
2022/01/27 08:08:34;;;;;;;61.38;28.58;;;;;;;3.94;100.00;101627.31;4999598;28;20053;-86
2022/01/27 08:11:00;;;;;;;67.32;34.80;;;;;;;3.96;100.00;101614.81;4993241;28;20042;-85
2022/01/27 08:13:27;;;;;;;61.00;32.20;;;;;;;3.96;100.00;101620.09;5015785;28;20041;-85
2022/01/27 08:15:55;;;;;;;57.80;30.33;;;;;;;3.97;100.00;101627.13;4999846;28;20073;-85
2022/01/27 08:18:24;;;;;;;62.08;31.67;;;;;;;3.98;100.00;101618.22;5020669;28;20136;-86
2022/01/27 08:20:50;;;;;;;70.93;37.67;;;;;;;3.99;100.00;101618.09;5010003;28;20056;-85
2022/01/27 08:23:16;;;;;;;73.18;37.55;;;;;;;4.00;100.00;101625.13;5012298;28;20042;-86
2022/01/27 08:25:48;;;;;;;62.22;31.33;;;;;;;4.01;100.00;101620.66;5004420;28;20045;-86
2022/01/27 08:28:28;;;;;;;70.28;36.80;;;;;;;4.04;100.00;101620.47;4988350;28;20395;-86
2022/01/27 08:30:59;;;;;;;67.20;36.08;;;;;;;4.05;100.00;101623.00;4997899;28;20046;-85
2022/01/27 08:33:30;;;;;;;60.38;26.88;;;;;;;4.08;100.00;101619.28;4995899;28;20100;-85
2022/01/27 08:35:58;;;;;;;60.20;32.47;;;;;;;4.07;100.00;101601.66;4984773;28;20042;-85
2022/01/27 08:38:36;;;;;;;59.58;29.00;;;;;;;4.10;100.00;101612.06;4990062;28;20088;-85
2022/01/27 08:41:09;;;;;;;58.37;27.53;;;;;;;4.08;100.00;101595.38;5004959;28;20503;-86
2022/01/27 08:43:34;;;;;;;61.22;33.58;;;;;;;4.11;100.00;101608.47;4992910;28;20385;-85
2022/01/27 08:46:01;;;;;;;58.88;32.70;;;;;;;4.13;100.00;101608.38;5000535;28;20506;-85
2022/01/27 08:48:29;;;;;;;60.72;29.17;;;;;;;4.14;100.00;101620.69;4982696;28;20560;-86
2022/01/27 08:51:01;;;;;;;57.58;29.02;;;;;;;4.16;100.00;101606.34;4989042;28;20442;-85
2022/01/27 08:53:30;;;;;;;59.15;30.35;;;;;;;4.17;100.00;101616.03;4982676;28;20105;-87
2022/01/27 08:56:04;;;;;;;52.33;26.13;;;;;;;4.17;100.00;101610.72;4998098;28;20054;-85
2022/01/27 08:58:34;;;;;;;57.45;28.80;;;;;;;4.19;100.00;101606.16;5000481;28;20042;-86
2022/01/27 09:01:03;;;;;;;58.40;30.65;;;;;;;4.22;100.00;101619.22;5001567;28;20101;-85
2022/01/27 09:03:30;;;;;;;64.18;31.60;;;;;;;4.23;100.00;101607.66;4987102;28;20123;-86
2022/01/27 09:05:55;;;;;;;57.15;27.70;;;;;;;4.25;100.00;101611.03;4994358;28;20049;-86
2022/01/27 09:08:24;;;;;;;58.95;27.15;;;;;;;4.25;100.00;101592.44;4990396;28;20052;-86
2022/01/27 09:10:55;;;;;;;61.65;30.35;;;;;;;4.26;100.00;101604.78;5000831;28;20050;-86
2022/01/27 09:13:20;;;;;;;66.45;33.53;;;;;;;4.29;100.00;101606.41;4996238;28;20947;-85
2022/01/27 09:15:49;;;;;;;52.53;25.05;;;;;;;4.29;100.00;101590.44;4989705;28;20053;-86
2022/01/27 09:18:16;;;;;;;61.90;34.35;;;;;;;4.32;100.00;101602.69;5010384;28;20403;-85
2022/01/27 09:20:42;;;;;;;62.90;31.58;;;;;;;4.33;100.00;101593.75;5010238;28;20524;-86
2022/01/27 09:23:13;;;;;;;51.25;25.38;;;;;;;4.36;100.00;101601.50;4992012;28;20041;-86
2022/01/27 09:25:46;;;;;;;62.47;32.45;;;;;;;4.37;100.00;101600.53;5009980;28;20133;-86
2022/01/27 09:28:15;;;;;;;55.13;26.52;;;;;;;4.39;100.00;101602.13;4996782;28;20045;-86
2022/01/27 09:30:42;;;;;;;61.63;31.27;;;;;;;4.42;100.00;101598.41;4989508;28;20184;-86
2022/01/27 09:33:08;;;;;;;59.75;31.80;;;;;;;4.43;100.00;101595.69;4996788;28;20034;-86
2022/01/27 09:35:35;;;;;;;56.63;26.13;;;;;;;4.46;100.00;101600.78;4993324;28;20046;-85
2022/01/27 09:38:11;;;;;;;60.92;24.80;;;;;;;4.48;100.00;101605.97;4996463;28;20042;-86
2022/01/27 09:40:38;;;;;;;56.30;26.98;;;;;;;4.48;100.00;101590.03;4987891;28;20107;-86
2022/01/27 09:43:05;;;;;;;45.83;23.23;;;;;;;4.50;100.00;101593.44;5008450;28;20037;-86
2022/01/27 09:45:43;;;;;;;47.20;22.75;;;;;;;4.52;100.00;101602.16;4984150;28;20058;-86
2022/01/27 09:48:14;;;;;;;52.15;26.58;;;;;;;4.57;100.00;101599.19;4980194;28;20053;-85
2022/01/27 09:53:09;;;;;;;41.10;21.30;;;;;;;4.62;100.00;101599.72;4996243;28;20104;-85
2022/01/27 09:55:36;;;;;;;52.47;25.60;;;;;;;4.65;100.00;101603.00;4999151;28;20294;-86
2022/01/27 09:58:04;;;;;;;52.65;27.05;;;;;;;4.68;100.00;101599.28;4995073;28;20049;-86
2022/01/27 10:00:30;;;;;;;48.65;23.52;;;;;;;4.69;100.00;101580.59;4998231;28;20061;-85
2022/01/27 10:03:06;;;;;;;46.92;24.05;;;;;;;4.74;100.00;101601.50;4988098;28;20034;-86
2022/01/27 10:05:34;;;;;;;46.92;22.02;;;;;;;4.74;100.00;101591.72;4993967;28;20615;-86
2022/01/27 10:08:22;;;;;;;48.10;25.35;;;;;;;4.78;100.00;101594.19;5001689;28;20245;-86
2022/01/27 10:10:53;;;;;;;41.27;23.10;;;;;;;4.78;100.00;101587.06;5004568;28;20045;-86
2022/01/27 10:13:34;;;;;;;45.63;25.40;;;;;;;4.80;100.00;101597.59;5005150;28;20053;-86
2022/01/27 10:16:07;;;;;;;41.60;16.95;;;;;;;4.81;100.00;101600.16;5004577;28;20117;-85
2022/01/27 10:18:40;;;;;;;41.85;20.42;;;;;;;4.83;100.00;101592.03;5007082;28;20045;-86
2022/01/27 10:21:13;;;;;;;42.75;22.23;;;;;;;4.86;100.00;101595.38;5009229;28;20505;-86
2022/01/27 10:23:41;;;;;;;34.80;17.38;;;;;;;4.89;100.00;101587.16;4999261;28;20045;-86
2022/01/27 10:26:23;;;;;;;36.63;17.65;;;;;;;4.91;100.00;101601.19;4986426;28;20034;-86
2022/01/27 10:29:13;;;;;;;40.50;20.77;;;;;;;4.95;100.00;101599.19;4997231;28;20517;-87
2022/01/27 10:31:41;;;;;;;35.83;19.17;;;;;;;4.96;100.00;101608.84;5048273;28;20523;-86
2022/01/27 10:34:08;;;;;;;42.00;23.97;;;;;;;4.99;100.00;101584.69;5014199;28;20072;-86
2022/01/27 10:36:43;;;;;;;44.28;23.55;;;;;;;4.99;100.00;101600.66;5001756;28;20288;-86
2022/01/27 10:39:25;;;;;;;43.38;23.65;;;;;;;5.03;100.00;101601.28;4990389;28;20042;-86
2022/01/27 10:42:08;;;;;;;40.78;21.65;;;;;;;5.03;100.00;101586.16;5000082;28;20061;-86
2022/01/27 10:44:45;;;;;;;43.95;23.17;;;;;;;5.07;100.00;101585.00;4982575;28;20052;-85
2022/01/27 10:47:19;;;;;;;40.70;21.85;;;;;;;5.09;100.00;101590.19;5000783;28;20072;-86
2022/01/27 10:49:54;;;;;;;44.05;25.25;;;;;;;5.09;100.00;101591.06;5008844;28;20045;-85
2022/01/27 10:52:45;;;;;;;34.25;17.65;;;;;;;5.11;100.00;101597.13;5001591;28;20112;-86
2022/01/27 10:55:18;;;;;;;46.75;25.45;;;;;;;5.12;100.00;101590.84;4988437;28;20046;-86
2022/01/27 10:57:55;;;;;;;45.63;25.52;;;;;;;5.13;100.00;101608.50;5003811;28;20050;-85
2022/01/27 11:00:26;;;;;;;41.28;22.73;;;;;;;5.14;100.00;101572.94;5020683;28;20037;-86
2022/01/27 11:03:08;;;;;;;40.33;20.95;;;;;;;5.16;100.00;101584.34;5011926;28;20042;-86
2022/01/27 11:05:41;;;;;;;46.30;26.05;;;;;;;5.19;100.00;101586.78;5011706;28;20141;-86
2022/01/27 11:08:12;;;;;;;38.35;19.77;;;;;;;5.22;100.00;101593.69;5002090;28;20034;-86
2022/01/27 11:10:54;;;;;;;39.38;19.98;;;;;;;5.24;100.00;101577.63;5000670;28;20049;-86
2022/01/27 11:13:27;;;;;;;36.60;17.25;;;;;;;5.26;100.00;101589.00;5003359;28;20048;-86
2022/01/27 11:15:59;;;;;;;39.33;20.63;;;;;;;5.28;100.00;101584.44;5003155;28;20168;-86
2022/01/27 11:18:27;;;;;;;37.13;19.95;;;;;;;5.31;100.00;101576.22;4985548;28;20534;-86
2022/01/27 11:21:02;;;;;;;38.10;20.33;;;;;;;5.33;100.00;101568.97;4983348;28;20078;-86
2022/01/27 11:26:23;;;;;;;38.83;19.55;;;;;;;5.39;100.00;101565.88;4984406;28;20053;-86
2022/01/27 11:28:56;;;;;;;32.55;17.42;;;;;;;5.42;100.00;101563.81;4955375;28;20513;-85
2022/01/27 11:31:29;;;;;;;31.63;19.20;;;;;;;5.46;100.00;101556.47;4971061;28;20082;-86
2022/01/27 11:34:03;;;;;;;34.75;16.20;;;;;;;5.48;100.00;101525.25;5001788;28;20058;-86
2022/01/27 11:37:08;;;;;;;31.10;18.65;;;;;;;5.51;100.00;101546.31;5004174;28;20097;-85
2022/01/27 11:39:53;;;;;;;32.00;18.17;;;;;;;5.53;100.00;101525.78;5025297;28;20088;-85
2022/01/27 11:42:34;;;;;;;28.65;17.10;;;;;;;5.55;100.00;101555.81;5009871;28;20042;-86
2022/01/27 11:45:29;;;;;;;29.67;17.35;;;;;;;5.58;100.00;101547.59;5000470;28;20089;-86
2022/01/27 11:47:59;;;;;;;29.05;16.42;;;;;;;5.62;100.00;101556.19;5003220;28;20065;-86
2022/01/27 11:50:35;;;;;;;31.08;16.73;;;;;;;5.66;100.00;101547.84;5014989;28;20065;-85
2022/01/27 11:53:06;;;;;;;26.58;15.63;;;;;;;5.71;100.00;101544.00;4989851;28;20045;-84
2022/01/27 11:55:34;;;;;;;27.80;16.17;;;;;;;5.74;100.00;101543.78;4992109;28;20129;-87
2022/01/27 11:58:12;;;;;;;22.50;11.47;;;;;;;5.77;100.00;101563.03;5003231;28;20056;-87
2022/01/27 12:00:39;;;;;;;29.83;20.40;;;;;;;5.79;100.00;101541.63;5008916;28;20121;-86
2022/01/27 12:03:10;;;;;;;25.17;16.67;;;;;;;5.83;100.00;101533.28;5008817;28;20564;-86
2022/01/27 12:05:39;;;;;;;31.30;15.63;;;;;;;5.86;100.00;101533.03;5008129;28;20042;-87
2022/01/27 12:08:17;;;;;;;23.38;13.13;;;;;;;5.88;100.00;101530.28;5005831;28;20046;-86
2022/01/27 12:10:50;;;;;;;28.80;17.63;;;;;;;5.90;100.00;101539.00;5011949;28;20457;-87
2022/01/27 12:13:30;;;;;;;29.83;16.77;;;;;;;5.95;100.00;101558.16;5007465;28;20113;-86
2022/01/27 12:16:11;;;;;;;25.95;14.90;;;;;;;5.97;100.00;101544.75;5001786;28;20050;-86